createdAt,value
2023-01-25T00:06:15.573Z,83.59
2023-01-25T00:14:38.434Z,83.82
2023-01-25T00:23:01.328Z,83.49
2023-01-25T00:32:09.290Z,83.41
2023-01-25T00:40:32.517Z,83.46
2023-01-25T00:48:56.091Z,83.47
2023-01-25T00:57:19.381Z,83.31
2023-01-25T01:05:42.701Z,83.43
2023-01-25T01:14:05.572Z,83.60
2023-01-25T01:22:28.456Z,83.64
2023-01-25T01:30:51.304Z,83.63
2023-01-25T01:39:14.658Z,83.43
2023-01-25T01:47:46.006Z,83.40
2023-01-25T01:56:18.420Z,83.43
2023-01-25T02:04:46.433Z,83.39
2023-01-25T02:13:11.334Z,83.23
2023-01-25T02:21:44.901Z,83.40
2023-01-25T02:30:09.767Z,83.33
2023-01-25T02:38:36.465Z,83.08
2023-01-25T02:46:59.807Z,83.21
2023-01-25T02:55:22.867Z,83.26
2023-01-25T03:03:45.921Z,83.39
2023-01-25T03:12:09.112Z,83.21
2023-01-25T03:20:34.376Z,83.25
2023-01-25T03:28:57.452Z,83.33
2023-01-25T03:37:20.825Z,82.92
2023-01-25T03:45:45.233Z,83.09
2023-01-25T03:54:10.229Z,82.82
2023-01-25T04:02:33.391Z,83.13
2023-01-25T04:11:03.238Z,83.00
2023-01-25T04:19:26.097Z,82.86
2023-01-25T04:27:51.725Z,83.00
2023-01-25T04:36:14.673Z,82.66
2023-01-25T04:44:39.189Z,82.81
2023-01-25T04:53:02.476Z,82.74
2023-01-25T05:01:26.597Z,82.91
2023-01-25T05:09:49.990Z,82.88
2023-01-25T05:18:17.680Z,82.53
2023-01-25T05:26:59.531Z,82.38
2023-01-25T05:35:22.684Z,82.54
2023-01-25T05:43:49.572Z,82.60
2023-01-25T05:52:17.469Z,82.34
2023-01-25T06:00:40.592Z,82.56
2023-01-25T06:09:04.684Z,82.37
2023-01-25T06:17:27.826Z,82.32
2023-01-25T06:26:09.079Z,82.42
2023-01-25T06:34:32.021Z,82.44
2023-01-25T06:42:55.358Z,82.22
2023-01-25T06:51:18.408Z,82.32
2023-01-25T06:59:41.522Z,82.30
2023-01-25T07:08:04.553Z,82.29
2023-01-25T07:16:27.605Z,82.26
2023-01-25T07:24:52.232Z,82.17
2023-01-25T07:33:15.503Z,82.25
2023-01-25T07:41:40.062Z,82.05
2023-01-25T07:50:08.737Z,82.35
2023-01-25T07:58:31.575Z,82.24
2023-01-25T08:06:54.631Z,82.03
2023-01-25T08:15:17.527Z,82.22
2023-01-25T08:23:40.349Z,82.04
2023-01-25T08:32:04.604Z,82.08
2023-01-25T08:40:27.781Z,82.06
2023-01-25T08:48:55.608Z,82.15
2023-01-25T08:57:18.426Z,82.11
2023-01-25T09:05:42.230Z,82.12
2023-01-25T09:14:05.893Z,82.11
2023-01-25T09:22:28.859Z,82.02
2023-01-25T09:31:20.308Z,82.13
2023-01-25T09:40:06.832Z,82.08
2023-01-25T09:48:39.265Z,81.87
2023-01-25T09:57:02.385Z,82.10
2023-01-25T10:05:31.685Z,82.12
2023-01-25T10:13:58.057Z,81.93
2023-01-25T10:22:25.192Z,82.01
2023-01-25T10:30:55.114Z,82.10
2023-01-25T10:39:20.425Z,82.07
2023-01-25T10:47:55.412Z,82.02
2023-01-25T10:56:25.893Z,82.21
2023-01-25T11:04:49.487Z,81.97
2023-01-25T11:13:14.978Z,82.11
2023-01-25T11:21:51.677Z,81.91
2023-01-25T11:30:20.935Z,82.01
2023-01-25T11:39:02.541Z,82.14
2023-01-25T11:47:31.892Z,81.91
2023-01-25T11:56:06.399Z,81.85
2023-01-25T12:04:41.675Z,81.86
2023-01-25T12:13:39.388Z,81.70
2023-01-25T12:22:24.322Z,81.79
2023-01-25T12:31:00.918Z,81.90
2023-01-25T12:39:33.081Z,81.87
2023-01-25T12:48:02.383Z,81.90
2023-01-25T12:56:43.976Z,81.86
2023-01-25T13:05:34.020Z,81.82
2023-01-25T13:14:42.429Z,81.70
2023-01-25T13:23:47.660Z,81.83
2023-01-25T13:32:25.309Z,81.71
2023-01-25T13:41:04.218Z,81.79
2023-01-25T13:49:55.660Z,81.89
2023-01-25T13:58:20.735Z,81.76
2023-01-25T14:06:45.469Z,81.91
2023-01-25T14:15:21.561Z,81.60
2023-01-25T14:23:45.937Z,81.68
2023-01-25T14:32:20.709Z,81.78
2023-01-25T14:40:44.159Z,81.65
2023-01-25T14:49:30.406Z,81.68
2023-01-25T14:57:59.626Z,81.63
2023-01-25T15:06:23.506Z,81.62
2023-01-25T15:14:52.085Z,81.88
2023-01-25T15:23:29.735Z,81.57
2023-01-25T15:31:55.488Z,81.58
2023-01-25T15:40:18.497Z,81.55
2023-01-25T15:48:45.501Z,81.61
2023-01-25T15:57:25.646Z,81.73
2023-01-25T16:05:51.880Z,81.73
2023-01-25T16:14:20.381Z,81.86
2023-01-25T16:22:47.399Z,81.80
2023-01-25T16:31:30.829Z,81.70
2023-01-25T16:39:56.431Z,81.62
2023-01-25T16:48:19.280Z,81.80
2023-01-25T16:56:42.252Z,81.57
2023-01-25T17:05:07.504Z,81.53
2023-01-25T17:13:30.848Z,81.62
2023-01-25T17:21:53.794Z,81.57
2023-01-25T17:30:18.436Z,81.67
2023-01-25T17:38:41.383Z,81.66
2023-01-25T17:47:04.299Z,81.62
2023-01-25T17:55:27.119Z,81.46
2023-01-25T18:03:52.541Z,81.64
2023-01-25T18:12:18.486Z,81.56
2023-01-25T18:20:43.193Z,81.73
2023-01-25T18:29:28.548Z,81.84
2023-01-25T18:37:52.099Z,81.71
2023-01-25T18:46:14.936Z,81.62
2023-01-25T18:54:37.891Z,81.78
2023-01-25T19:03:01.184Z,81.85
2023-01-25T19:11:24.351Z,81.57
2023-01-25T19:19:47.200Z,81.65
2023-01-25T19:28:10.012Z,81.61
2023-01-25T19:36:36.248Z,81.78
2023-01-25T19:45:03.174Z,81.83
2023-01-25T19:53:26.312Z,81.84
2023-01-25T20:01:49.459Z,81.60
2023-01-25T20:10:12.517Z,81.63
2023-01-25T20:18:36.179Z,81.60
2023-01-25T20:26:58.974Z,81.87
2023-01-25T20:35:21.985Z,81.54
2023-01-25T20:43:49.202Z,81.51
2023-01-25T20:52:13.842Z,81.72
2023-01-25T21:00:37.222Z,81.84
2023-01-25T21:09:00.197Z,81.53
2023-01-25T21:17:23.056Z,81.50
2023-01-25T21:25:45.916Z,81.69
2023-01-25T21:34:11.520Z,81.69
2023-01-25T21:42:34.385Z,81.62
2023-01-25T21:51:17.134Z,81.71
2023-01-25T21:59:41.080Z,81.71
2023-01-25T22:08:04.107Z,81.70
2023-01-25T22:16:29.384Z,81.81
2023-01-25T22:24:52.552Z,81.83
2023-01-25T22:33:15.365Z,81.93
2023-01-25T22:41:38.273Z,81.85
2023-01-25T22:50:01.165Z,81.55
2023-01-25T22:58:24.036Z,81.64
2023-01-25T23:06:46.935Z,81.99
2023-01-25T23:15:15.713Z,81.80
2023-01-25T23:23:38.877Z,81.60
2023-01-25T23:32:01.682Z,81.69
2023-01-25T23:40:24.853Z,81.87
2023-01-25T23:48:47.676Z,81.86
2023-01-25T23:57:10.611Z,81.83
